Terminal Aerodrome Forecast
Issued by NWS

Home | Current Version | Previous Version | Graphics & Text | Print | Product List | Glossary On
Versions: 1 2 3 4 5 6 7 8 9 10 11 12
974
FTUS43 KICT 062321
TAFRSL
TAF
KRSL 062321Z 0700/0724 22011KT P6SM SCT250
     FM070700 30010KT P6SM SCT250
     FM071600 31015KT P6SM SCT200
     FM071800 31020G27KT P6SM SCT200=

USA.gov is the U.S. government's official web portal to all federal, state and local government web resources and services.